createdAt,value
2024-01-04T00:00:31.475Z,10.32
2024-01-04T00:04:33.185Z,10.31
2024-01-04T00:08:35.224Z,10.32
2024-01-04T00:12:36.968Z,10.34
2024-01-04T00:16:38.599Z,10.35
2024-01-04T00:20:40.320Z,10.36
2024-01-04T00:24:41.977Z,10.36
2024-01-04T00:28:43.545Z,10.36
2024-01-04T00:32:45.240Z,10.35
2024-01-04T00:36:46.959Z,10.34
2024-01-04T00:40:48.921Z,10.35
2024-01-04T00:44:51.628Z,10.35
2024-01-04T00:48:53.706Z,10.35
2024-01-04T00:53:03.187Z,10.36
2024-01-04T00:57:08.084Z,10.36
2024-01-04T01:01:09.919Z,10.36
2024-01-04T01:05:11.995Z,10.38
2024-01-04T01:09:13.601Z,10.36
2024-01-04T01:13:21.335Z,10.36
2024-01-04T01:17:22.961Z,10.35
2024-01-04T01:21:24.570Z,10.35
2024-01-04T01:25:26.208Z,10.35
2024-01-04T01:29:27.960Z,10.35
2024-01-04T01:33:30.264Z,10.35
2024-01-04T01:37:37.513Z,10.38
2024-01-04T01:41:39.317Z,10.39
2024-01-04T01:45:40.990Z,10.38
2024-01-04T01:49:42.693Z,10.36
2024-01-04T01:53:45.800Z,10.38
2024-01-04T01:57:47.636Z,10.36
2024-01-04T02:01:49.370Z,10.36
2024-01-04T02:05:51.494Z,10.38
2024-01-04T02:09:53.531Z,10.42
2024-01-04T02:13:55.098Z,10.42
2024-01-04T02:17:57.043Z,10.43
2024-01-04T02:21:59.290Z,10.43
2024-01-04T02:26:01.573Z,10.42
2024-01-04T02:30:03.973Z,10.39
2024-01-04T02:34:05.883Z,10.42
2024-01-04T02:38:07.571Z,10.42
2024-01-04T02:42:09.415Z,10.43
2024-01-04T02:46:11.126Z,10.44
2024-01-04T02:50:13.295Z,10.43
2024-01-04T02:54:14.972Z,10.39
2024-01-04T02:58:16.621Z,10.39
2024-01-04T03:02:18.200Z,10.39
2024-01-04T03:06:26.211Z,10.39
2024-01-04T03:10:27.889Z,10.36
2024-01-04T03:14:29.482Z,10.36
2024-01-04T03:18:31.289Z,10.36
2024-01-04T03:22:32.944Z,10.35
2024-01-04T03:26:34.794Z,10.35
2024-01-04T03:30:36.634Z,10.36
2024-01-04T03:34:38.323Z,10.34
2024-01-04T03:38:39.995Z,10.34
2024-01-04T03:42:41.635Z,10.32
2024-01-04T03:46:43.297Z,10.31
2024-01-04T03:50:44.851Z,10.26
2024-01-04T03:54:46.466Z,10.25
2024-01-04T03:58:48.145Z,10.24
2024-01-04T04:02:49.869Z,10.22
2024-01-04T04:06:51.653Z,10.20
2024-01-04T04:10:53.294Z,10.20
2024-01-04T04:14:55.626Z,10.20
2024-01-04T04:18:57.538Z,10.22
2024-01-04T04:22:59.206Z,10.22
2024-01-04T04:27:00.837Z,10.22
2024-01-04T04:31:04.344Z,10.22
2024-01-04T04:35:06.231Z,10.26
2024-01-04T04:39:09.795Z,10.29
2024-01-04T04:43:11.388Z,10.31
2024-01-04T04:47:12.960Z,10.31
2024-01-04T04:51:14.619Z,10.32
2024-01-04T04:55:16.231Z,10.29
2024-01-04T04:59:17.864Z,10.29
2024-01-04T05:03:19.559Z,10.32
2024-01-04T05:07:21.231Z,10.34
2024-01-04T05:11:22.822Z,10.35
2024-01-04T05:15:24.495Z,10.34
2024-01-04T05:19:26.361Z,10.32
2024-01-04T05:23:28.136Z,10.34
2024-01-04T05:27:29.799Z,10.31
2024-01-04T05:31:31.471Z,10.31
2024-01-04T05:35:33.093Z,10.29
2024-01-04T05:39:35.626Z,10.31
2024-01-04T05:43:37.217Z,10.28
2024-01-04T05:47:38.994Z,10.28
2024-01-04T05:51:42.729Z,10.26
2024-01-04T05:55:45.062Z,10.25
2024-01-04T05:59:46.669Z,10.22
2024-01-04T06:03:48.840Z,10.22
2024-01-04T06:07:50.601Z,10.18
2024-01-04T06:11:52.633Z,10.20
2024-01-04T06:15:54.569Z,10.18
2024-01-04T06:19:56.459Z,10.24
2024-01-04T06:23:58.460Z,10.24
2024-01-04T06:28:00.256Z,10.22
2024-01-04T06:32:02.086Z,10.20
2024-01-04T06:36:04.047Z,10.18
2024-01-04T06:40:09.405Z,10.17
2024-01-04T06:44:10.956Z,10.17
2024-01-04T06:48:12.609Z,10.14
2024-01-04T06:52:16.450Z,10.14
2024-01-04T06:56:19.501Z,10.17
2024-01-04T07:00:21.310Z,10.14
2024-01-04T07:04:22.951Z,10.14
2024-01-04T07:08:24.596Z,10.13
2024-01-04T07:12:27.029Z,10.11
2024-01-04T07:16:28.735Z,10.13
2024-01-04T07:20:30.318Z,10.13
2024-01-04T07:24:32.354Z,10.14
2024-01-04T07:28:34.038Z,10.13
2024-01-04T07:32:35.762Z,10.13
2024-01-04T07:36:37.435Z,10.10
2024-01-04T07:40:39.114Z,10.09
2024-01-04T07:44:45.367Z,10.09
2024-01-04T07:48:52.133Z,10.07
2024-01-04T07:52:53.823Z,10.02
2024-01-04T07:56:55.674Z,9.96
2024-01-04T08:00:59.060Z,9.88
2024-01-04T08:05:01.585Z,9.83
2024-01-04T08:09:04.445Z,9.77
2024-01-04T08:13:06.375Z,9.75
2024-01-04T08:17:08.055Z,9.78
2024-01-04T08:21:11.032Z,9.77
2024-01-04T08:25:12.708Z,9.80
2024-01-04T08:29:14.311Z,9.83
2024-01-04T08:33:16.030Z,9.85
2024-01-04T08:37:19.832Z,9.81
2024-01-04T08:41:21.630Z,9.83
2024-01-04T08:45:23.530Z,9.83
2024-01-04T08:49:25.532Z,9.83
2024-01-04T08:53:27.304Z,9.88
2024-01-04T08:57:28.979Z,9.89
2024-01-04T09:01:30.969Z,9.91
2024-01-04T09:05:32.698Z,9.93
2024-01-04T09:09:34.362Z,9.98
2024-01-04T09:13:40.022Z,10.06
2024-01-04T09:17:44.984Z,10.13
2024-01-04T09:21:50.882Z,10.13
2024-01-04T09:25:52.506Z,10.17
2024-01-04T09:29:54.272Z,10.18
2024-01-04T09:33:56.655Z,10.17
2024-01-04T09:37:58.324Z,10.14
2024-01-04T09:42:01.278Z,10.11
2024-01-04T09:46:03.100Z,10.07
2024-01-04T09:50:05.279Z,10.09
2024-01-04T09:54:09.676Z,10.06
2024-01-04T09:58:11.999Z,10.09
2024-01-04T10:02:17.974Z,10.10
2024-01-04T10:06:30.127Z,10.11
2024-01-04T10:10:36.316Z,10.10
2024-01-04T10:14:38.817Z,10.07
2024-01-04T10:18:42.298Z,10.09
2024-01-04T10:22:44.266Z,10.14
2024-01-04T10:26:53.797Z,10.16
2024-01-04T10:30:58.452Z,10.18
2024-01-04T10:35:10.119Z,10.22
2024-01-04T10:39:12.117Z,10.25
2024-01-04T10:43:20.555Z,10.29
2024-01-04T10:47:22.882Z,10.31
2024-01-04T10:51:26.667Z,10.36
2024-01-04T10:55:29.524Z,10.38
2024-01-04T10:59:33.429Z,10.43
2024-01-04T11:03:35.220Z,10.46
2024-01-04T11:07:40.930Z,10.49
2024-01-04T11:11:43.810Z,10.47
2024-01-04T11:15:45.900Z,10.44
2024-01-04T11:20:12.185Z,10.55
2024-01-04T11:24:31.395Z,10.69
2024-01-04T11:28:39.866Z,10.76
2024-01-04T11:32:45.654Z,10.86
2024-01-04T11:36:50.273Z,10.90
2024-01-04T11:40:52.740Z,10.90
2024-01-04T11:44:59.252Z,10.99
2024-01-04T11:49:05.815Z,11.11
2024-01-04T11:53:09.521Z,11.13
2024-01-04T11:57:20.974Z,11.03
2024-01-04T12:01:25.508Z,11.05
2024-01-04T12:05:30.494Z,11.09
2024-01-04T12:09:32.102Z,11.20
2024-01-04T12:13:33.815Z,11.35
2024-01-04T12:17:35.444Z,11.45
2024-01-04T12:21:37.213Z,11.46
2024-01-04T12:25:39.820Z,11.45
2024-01-04T12:29:43.494Z,11.44
2024-01-04T12:33:48.348Z,11.56
2024-01-04T12:38:04.439Z,11.63
2024-01-04T12:42:06.158Z,11.56
2024-01-04T12:46:09.712Z,11.54
2024-01-04T12:50:11.584Z,11.56
2024-01-04T12:54:13.356Z,11.49
2024-01-04T12:58:15.401Z,11.53
2024-01-04T13:02:17.037Z,11.49
2024-01-04T13:06:18.855Z,11.48
2024-01-04T13:10:20.503Z,11.62
2024-01-04T13:14:22.112Z,11.57
2024-01-04T13:18:23.897Z,11.60
2024-01-04T13:22:27.296Z,11.54
2024-01-04T13:26:30.063Z,11.41
2024-01-04T13:30:32.163Z,11.30
2024-01-04T13:34:33.928Z,11.16
2024-01-04T13:38:35.619Z,11.09
2024-01-04T13:42:37.226Z,11.02
2024-01-04T13:46:38.852Z,11.01
2024-01-04T13:50:40.484Z,10.99
2024-01-04T13:54:43.462Z,10.93
2024-01-04T13:58:45.266Z,10.83
2024-01-04T14:02:46.930Z,10.72
2024-01-04T14:06:48.647Z,10.65
2024-01-04T14:10:50.254Z,10.63
2024-01-04T14:14:51.953Z,10.69
2024-01-04T14:18:53.582Z,10.75
2024-01-04T14:22:58.677Z,10.78
2024-01-04T14:27:00.402Z,10.73
2024-01-04T14:31:03.366Z,10.75
2024-01-04T14:35:06.837Z,10.83
2024-01-04T14:39:08.781Z,10.93
2024-01-04T14:43:12.656Z,11.01
2024-01-04T14:47:14.230Z,11.01
2024-01-04T14:51:23.409Z,10.95
2024-01-04T14:55:28.051Z,10.87
2024-01-04T14:59:29.772Z,10.84
2024-01-04T15:03:31.545Z,10.84
2024-01-04T15:07:33.785Z,10.84
2024-01-04T15:11:35.498Z,10.80
2024-01-04T15:15:38.617Z,10.75
2024-01-04T15:19:40.496Z,10.69
2024-01-04T15:23:42.223Z,10.68
2024-01-04T15:27:43.850Z,10.63
2024-01-04T15:31:46.018Z,10.62
2024-01-04T15:35:47.798Z,10.58
2024-01-04T15:39:49.472Z,10.52
2024-01-04T15:43:51.121Z,10.44
2024-01-04T15:47:54.297Z,10.35
2024-01-04T15:51:56.159Z,10.29
2024-01-04T15:55:57.762Z,10.16
2024-01-04T15:59:59.682Z,10.06
2024-01-04T16:04:01.398Z,9.93
2024-01-04T16:08:03.295Z,9.85
2024-01-04T16:12:05.384Z,9.74
2024-01-04T16:16:07.218Z,9.65
2024-01-04T16:20:15.732Z,9.59
2024-01-04T16:24:24.345Z,9.56
2024-01-04T16:28:26.083Z,9.55
2024-01-04T16:32:27.777Z,9.53
2024-01-04T16:36:29.509Z,9.58
2024-01-04T16:40:31.180Z,9.62
2024-01-04T16:44:33.291Z,9.65
2024-01-04T16:48:35.532Z,9.68
2024-01-04T16:52:37.505Z,9.65
2024-01-04T16:56:39.200Z,9.60
2024-01-04T17:00:40.842Z,9.58
2024-01-04T17:04:42.798Z,9.55
2024-01-04T17:08:44.755Z,9.52
2024-01-04T17:12:46.600Z,9.44
2024-01-04T17:16:48.249Z,9.35
2024-01-04T17:20:49.984Z,9.30
2024-01-04T17:24:51.802Z,9.26
2024-01-04T17:28:54.150Z,9.22
2024-01-04T17:32:55.990Z,9.19
2024-01-04T17:36:57.819Z,9.13
2024-01-04T17:41:00.418Z,9.12
2024-01-04T17:45:02.217Z,9.10
2024-01-04T17:49:04.220Z,9.08
2024-01-04T17:53:06.618Z,9.08
2024-01-04T17:57:08.336Z,9.06
2024-01-04T18:01:13.776Z,9.08
2024-01-04T18:05:16.022Z,9.06
2024-01-04T18:09:17.711Z,9.08
2024-01-04T18:13:19.316Z,9.10
2024-01-04T18:17:22.540Z,9.08
2024-01-04T18:21:24.595Z,9.06
2024-01-04T18:25:26.443Z,9.06
2024-01-04T18:29:28.076Z,9.03
2024-01-04T18:33:29.870Z,9.03
2024-01-04T18:37:31.567Z,9.03
2024-01-04T18:41:33.594Z,9.03
2024-01-04T18:45:35.438Z,9.10
2024-01-04T18:49:37.544Z,9.15
2024-01-04T18:53:39.233Z,9.16
2024-01-04T18:57:40.879Z,9.16
2024-01-04T19:01:42.662Z,9.15
2024-01-04T19:05:44.508Z,9.15
2024-01-04T19:09:46.166Z,9.17
2024-01-04T19:13:48.839Z,9.19
2024-01-04T19:17:50.780Z,9.27
2024-01-04T19:21:52.519Z,9.34
2024-01-04T19:25:54.185Z,9.34
2024-01-04T19:29:56.208Z,9.31
2024-01-04T19:33:58.924Z,9.27
2024-01-04T19:38:01.329Z,9.23
2024-01-04T19:42:03.126Z,9.20
2024-01-04T19:46:10.042Z,9.20
2024-01-04T19:50:12.800Z,9.17
2024-01-04T19:54:16.710Z,9.08
2024-01-04T19:58:18.838Z,9.00
2024-01-04T20:02:20.537Z,8.94
2024-01-04T20:06:22.353Z,8.91
2024-01-04T20:10:24.072Z,8.86
2024-01-04T20:14:27.612Z,8.83
2024-01-04T20:18:29.444Z,8.79
2024-01-04T20:22:31.190Z,8.78
2024-01-04T20:26:33.558Z,8.71
2024-01-04T20:30:35.686Z,8.70
2024-01-04T20:34:37.503Z,8.65
2024-01-04T20:38:39.230Z,8.64
2024-01-04T20:42:41.468Z,8.64
2024-01-04T20:46:43.836Z,8.63
2024-01-04T20:50:46.699Z,8.60
2024-01-04T20:54:48.398Z,8.55
2024-01-04T20:58:50.043Z,8.50
2024-01-04T21:02:51.773Z,8.47
2024-01-04T21:06:53.753Z,8.45
2024-01-04T21:10:55.518Z,8.45
2024-01-04T21:14:57.593Z,8.45
2024-01-04T21:18:59.531Z,8.46
2024-01-04T21:23:02.050Z,8.46
2024-01-04T21:27:09.002Z,8.46
2024-01-04T21:31:10.774Z,8.46
2024-01-04T21:35:12.619Z,8.47
2024-01-04T21:39:15.079Z,8.46
2024-01-04T21:43:16.811Z,8.42
2024-01-04T21:47:18.686Z,8.40
2024-01-04T21:51:21.761Z,8.37
2024-01-04T21:55:23.592Z,8.36
2024-01-04T21:59:26.149Z,8.36
2024-01-04T22:03:28.170Z,8.34
2024-01-04T22:07:29.923Z,8.34
2024-01-04T22:11:31.620Z,8.32
2024-01-04T22:15:33.932Z,8.31
2024-01-04T22:19:36.868Z,8.32
2024-01-04T22:23:38.662Z,8.32
2024-01-04T22:27:40.290Z,8.29
2024-01-04T22:31:42.218Z,8.31
2024-01-04T22:35:43.929Z,8.29
2024-01-04T22:39:45.683Z,8.29
2024-01-04T22:43:47.237Z,8.29
2024-01-04T22:47:49.421Z,8.29
2024-01-04T22:51:51.100Z,8.27
2024-01-04T22:55:52.881Z,8.28
2024-01-04T22:59:57.357Z,8.28
2024-01-04T23:04:00.072Z,8.28
2024-01-04T23:08:01.975Z,8.25
2024-01-04T23:12:03.798Z,8.21
2024-01-04T23:16:05.956Z,8.22
2024-01-04T23:20:08.301Z,8.22
2024-01-04T23:24:10.269Z,8.21
2024-01-04T23:28:11.993Z,8.21
2024-01-04T23:32:13.962Z,8.17
2024-01-04T23:36:16.249Z,8.14
2024-01-04T23:40:17.972Z,8.10
2024-01-04T23:44:19.635Z,8.09
2024-01-04T23:48:21.507Z,8.06
2024-01-04T23:52:23.339Z,8.04
2024-01-04T23:56:24.909Z,8.02
